createdAt,value
2018-05-24T00:00:08.937Z,59.10
2018-05-24T00:02:41.732Z,56.77
2018-05-24T00:05:12.019Z,57.13
2018-05-24T00:07:41.724Z,61.37
2018-05-24T00:10:12.972Z,63.77
2018-05-24T00:12:41.462Z,64.13
2018-05-24T00:15:11.696Z,59.53
2018-05-24T00:17:40.723Z,59.07
2018-05-24T00:20:09.756Z,59.27
2018-05-24T00:22:38.082Z,59.80
2018-05-24T00:25:08.372Z,62.17
2018-05-24T00:27:36.671Z,59.60
2018-05-24T00:30:05.666Z,60.63
2018-05-24T00:32:39.078Z,59.37
2018-05-24T00:35:08.726Z,60.23
2018-05-24T00:37:39.578Z,58.57
2018-05-24T00:40:09.215Z,56.30
2018-05-24T00:42:38.769Z,60.97
2018-05-24T00:45:09.280Z,60.57
2018-05-24T00:47:40.876Z,59.70
2018-05-24T00:50:09.667Z,60.43
2018-05-24T00:52:40.396Z,63.20
2018-05-24T00:55:22.242Z,66.00
2018-05-24T00:57:58.090Z,67.83
2018-05-24T01:00:27.360Z,63.27
2018-05-24T01:02:55.621Z,62.33
2018-05-24T01:05:24.714Z,67.37
2018-05-24T01:07:52.942Z,67.97
2018-05-24T01:10:21.192Z,67.10
2018-05-24T01:12:51.666Z,68.53
2018-05-24T01:15:35.678Z,67.80
2018-05-24T01:18:16.722Z,67.47
2018-05-24T01:20:50.605Z,71.30
2018-05-24T01:23:39.858Z,75.10
2018-05-24T01:26:14.553Z,83.60
2018-05-24T01:28:43.512Z,71.60
2018-05-24T01:31:18.341Z,73.80
2018-05-24T01:34:07.868Z,84.50
2018-05-24T01:36:53.869Z,77.30
2018-05-24T01:39:29.102Z,78.47
2018-05-24T01:41:58.792Z,82.90
2018-05-24T01:44:28.165Z,83.70
2018-05-24T01:46:56.721Z,78.83
2018-05-24T01:49:28.987Z,81.57
2018-05-24T01:51:59.076Z,81.67
2018-05-24T01:54:27.497Z,79.33
2018-05-24T01:56:55.759Z,72.37
2018-05-24T01:59:23.984Z,77.17
2018-05-24T02:01:52.337Z,76.30
2018-05-24T02:04:21.606Z,84.00
2018-05-24T02:06:49.917Z,91.37
2018-05-24T02:09:18.160Z,91.63
2018-05-24T02:11:46.407Z,86.90
2018-05-24T02:14:14.744Z,84.70
2018-05-24T02:16:42.991Z,84.50
2018-05-24T02:19:11.978Z,90.10
2018-05-24T02:21:41.056Z,97.73
2018-05-24T02:24:11.229Z,109.83
2018-05-24T02:26:40.439Z,95.37
2018-05-24T02:29:11.440Z,89.13
2018-05-24T02:31:40.072Z,85.43
2018-05-24T02:34:08.343Z,79.23
2018-05-24T02:36:36.652Z,77.53
2018-05-24T02:39:05.767Z,83.43
2018-05-24T02:41:36.152Z,77.97
2018-05-24T02:44:05.207Z,69.97
2018-05-24T02:46:35.136Z,78.23
2018-05-24T02:49:03.455Z,77.37
2018-05-24T02:51:32.658Z,68.37
2018-05-24T02:54:01.145Z,59.67
2018-05-24T02:56:30.127Z,55.57
2018-05-24T02:58:58.485Z,53.70
2018-05-24T03:01:27.992Z,60.67
2018-05-24T03:03:57.142Z,66.93
2018-05-24T03:06:25.377Z,69.73
2018-05-24T03:08:53.769Z,73.50
2018-05-24T03:11:23.331Z,70.10
2018-05-24T03:13:52.419Z,71.93
2018-05-24T03:16:21.410Z,70.03
2018-05-24T03:18:51.090Z,71.53
2018-05-24T03:21:21.027Z,79.37
2018-05-24T03:23:49.335Z,73.03
2018-05-24T03:26:20.579Z,91.07
2018-05-24T03:28:49.252Z,83.73
2018-05-24T03:31:17.541Z,101.10
2018-05-24T03:33:45.886Z,98.90
2018-05-24T03:36:14.231Z,105.03
2018-05-24T03:38:42.938Z,98.93
2018-05-24T03:41:13.460Z,108.30
2018-05-24T03:43:42.552Z,94.87
2018-05-24T03:46:10.896Z,78.87
2018-05-24T03:48:40.604Z,67.47
2018-05-24T03:51:08.884Z,62.60
2018-05-24T03:53:42.020Z,55.37
2018-05-24T03:56:11.483Z,47.93
2018-05-24T03:58:40.232Z,44.50
2018-05-24T04:01:21.093Z,41.43
2018-05-24T04:03:51.110Z,40.37
2018-05-24T04:06:21.939Z,36.50
2018-05-24T04:08:51.236Z,36.00
2018-05-24T04:11:20.161Z,32.30
2018-05-24T04:13:48.386Z,28.60
2018-05-24T04:16:18.167Z,26.73
2018-05-24T04:18:46.461Z,24.83
2018-05-24T04:21:15.374Z,23.93
2018-05-24T04:23:43.588Z,20.43
2018-05-24T04:26:12.195Z,18.60
2018-05-24T04:28:41.519Z,18.23
2018-05-24T04:31:10.555Z,18.20
2018-05-24T04:33:38.772Z,16.27
2018-05-24T04:36:07.821Z,15.60
2018-05-24T04:38:36.055Z,15.30
2018-05-24T04:41:06.223Z,15.33
2018-05-24T04:43:34.704Z,13.43
2018-05-24T04:46:03.690Z,14.10
2018-05-24T04:48:32.804Z,13.10
2018-05-24T04:51:02.058Z,13.33
2018-05-24T04:53:32.035Z,13.60
2018-05-24T04:56:00.322Z,12.53
2018-05-24T04:58:28.986Z,12.33
2018-05-24T05:00:57.346Z,12.20
2018-05-24T05:03:25.644Z,12.20
2018-05-24T05:05:54.555Z,12.23
2018-05-24T05:08:25.446Z,12.03
2018-05-24T05:10:53.998Z,12.87
2018-05-24T05:13:23.146Z,11.53
2018-05-24T05:15:51.562Z,10.83
2018-05-24T05:18:19.883Z,10.90
2018-05-24T05:20:49.038Z,11.83
2018-05-24T05:23:18.504Z,11.77
2018-05-24T05:25:47.680Z,10.73
2018-05-24T05:28:16.358Z,12.87
2018-05-24T05:30:44.701Z,11.90
2018-05-24T05:33:12.966Z,12.10
2018-05-24T05:35:42.132Z,11.40
2018-05-24T05:38:10.438Z,11.57
2018-05-24T05:40:39.557Z,11.13
2018-05-24T05:43:07.825Z,12.67
2018-05-24T05:45:36.914Z,12.87
2018-05-24T05:48:10.878Z,12.40
2018-05-24T05:50:43.420Z,12.80
2018-05-24T05:56:12.052Z,12.00
2018-05-24T05:58:49.809Z,12.10
2018-05-24T06:01:21.942Z,11.90
2018-05-24T06:06:50.806Z,11.93
2018-05-24T06:09:21.246Z,11.73
2018-05-24T06:11:50.343Z,12.27
2018-05-24T06:14:27.037Z,11.77
2018-05-24T06:17:00.261Z,12.10
2018-05-24T06:19:30.229Z,10.50
2018-05-24T06:22:10.595Z,10.03
2018-05-24T06:24:40.203Z,9.20
2018-05-24T06:27:26.350Z,8.90
2018-05-24T06:29:55.865Z,8.83
2018-05-24T06:32:31.784Z,8.70
2018-05-24T06:35:01.467Z,9.47
2018-05-24T06:37:30.002Z,8.93
2018-05-24T06:39:58.411Z,10.20
2018-05-24T06:42:26.978Z,9.17
2018-05-24T06:44:56.417Z,9.90
2018-05-24T06:47:41.787Z,10.23
2018-05-24T06:50:21.247Z,9.73
2018-05-24T06:53:07.241Z,9.63
2018-05-24T06:55:51.957Z,9.20
2018-05-24T06:58:29.269Z,9.83
2018-05-24T07:01:04.980Z,9.57
2018-05-24T07:03:40.724Z,10.13
2018-05-24T07:09:22.322Z,8.83
2018-05-24T07:12:06.906Z,8.93
2018-05-24T07:15:08.115Z,8.70
2018-05-24T07:20:48.629Z,8.83
2018-05-24T07:23:44.586Z,9.47
2018-05-24T07:26:21.573Z,9.00
2018-05-24T07:28:51.238Z,9.80
2018-05-24T07:31:22.004Z,8.90
2018-05-24T07:33:53.537Z,9.00
2018-05-24T07:36:24.700Z,8.93
2018-05-24T07:38:57.890Z,9.13
2018-05-24T07:41:27.876Z,9.00
2018-05-24T07:43:58.352Z,9.33
2018-05-24T07:46:29.452Z,9.23
2018-05-24T07:49:00.712Z,9.00
2018-05-24T07:51:31.180Z,8.73
2018-05-24T07:54:03.138Z,9.60
2018-05-24T07:56:33.368Z,9.10
2018-05-24T07:59:02.493Z,9.77
2018-05-24T08:01:30.892Z,10.13
2018-05-24T08:03:59.282Z,10.00
2018-05-24T08:06:28.345Z,10.93
2018-05-24T08:08:56.633Z,10.17
2018-05-24T08:11:25.540Z,9.93
2018-05-24T08:13:53.921Z,8.70
2018-05-24T08:16:23.725Z,9.40
2018-05-24T08:18:53.267Z,8.97
2018-05-24T08:21:23.327Z,8.93
2018-05-24T08:23:54.535Z,9.03
2018-05-24T08:26:24.023Z,9.03
2018-05-24T08:28:52.609Z,9.17
2018-05-24T08:31:21.572Z,10.07
2018-05-24T08:33:50.996Z,10.77
2018-05-24T08:36:19.353Z,10.30
2018-05-24T08:38:47.660Z,12.07
2018-05-24T08:41:18.588Z,12.80
2018-05-24T08:43:48.189Z,12.37
2018-05-24T08:46:16.421Z,11.63
2018-05-24T08:48:44.769Z,11.93
2018-05-24T08:51:13.043Z,12.17
2018-05-24T08:53:41.544Z,11.87
2018-05-24T08:56:12.170Z,12.67
2018-05-24T08:58:40.961Z,11.37
2018-05-24T09:01:09.947Z,12.10
2018-05-24T09:03:39.947Z,12.30
2018-05-24T09:06:09.630Z,12.97
2018-05-24T09:08:37.969Z,12.40
2018-05-24T09:11:07.144Z,13.30
2018-05-24T09:13:35.659Z,13.13
2018-05-24T09:16:04.025Z,13.43
2018-05-24T09:18:35.561Z,13.17
2018-05-24T09:21:07.337Z,13.27
2018-05-24T09:23:36.750Z,13.90
2018-05-24T09:26:05.858Z,14.53
2018-05-24T09:28:38.963Z,13.90
2018-05-24T09:31:07.704Z,14.30
2018-05-24T09:33:39.236Z,13.00
2018-05-24T09:36:09.223Z,11.40
2018-05-24T09:38:40.213Z,10.40
2018-05-24T09:41:08.898Z,11.27
2018-05-24T09:43:40.114Z,11.17
2018-05-24T09:46:09.276Z,11.10
2018-05-24T09:48:44.209Z,12.33
2018-05-24T09:51:17.336Z,12.67
2018-05-24T09:53:48.018Z,13.43
2018-05-24T09:56:33.785Z,13.50
2018-05-24T09:59:09.006Z,14.33
2018-05-24T10:01:56.167Z,12.93
2018-05-24T10:04:30.770Z,13.83
2018-05-24T10:07:19.793Z,13.67
2018-05-24T10:09:56.567Z,12.67
2018-05-24T10:16:06.698Z,13.07
2018-05-24T10:18:43.427Z,12.50
2018-05-24T10:21:26.761Z,12.87
2018-05-24T10:26:51.938Z,13.43
2018-05-24T10:29:40.701Z,11.67
2018-05-24T10:32:14.842Z,12.03
2018-05-24T10:34:51.540Z,12.57
2018-05-24T10:37:22.106Z,11.90
2018-05-24T10:39:54.484Z,13.57
2018-05-24T10:42:23.005Z,14.17
2018-05-24T10:44:52.132Z,13.50
2018-05-24T10:47:21.200Z,12.77
2018-05-24T10:49:55.322Z,13.43
2018-05-24T10:52:24.968Z,14.43
2018-05-24T10:54:55.064Z,14.87
2018-05-24T10:57:24.378Z,13.90
2018-05-24T10:59:56.453Z,14.20
2018-05-24T11:02:30.632Z,14.20
2018-05-24T11:04:59.794Z,14.77
2018-05-24T11:07:28.218Z,15.10
2018-05-24T11:09:56.552Z,13.87
2018-05-24T11:12:35.221Z,14.75
2018-05-24T11:28:08.623Z,16.73
2018-05-24T11:30:37.113Z,17.03
2018-05-24T11:33:06.250Z,16.07
2018-05-24T11:35:36.370Z,16.43
2018-05-24T11:38:05.284Z,15.30
2018-05-24T11:40:33.619Z,15.70
2018-05-24T11:43:02.852Z,15.87
2018-05-24T11:45:32.015Z,15.83
2018-05-24T11:48:00.380Z,16.50
2018-05-24T11:50:30.594Z,17.00
2018-05-24T11:52:59.651Z,16.83
2018-05-24T11:55:29.115Z,17.33
2018-05-24T11:57:57.783Z,17.70
2018-05-24T12:00:26.275Z,16.97
2018-05-24T12:02:57.025Z,17.70
2018-05-24T12:05:25.508Z,17.00
2018-05-24T12:07:54.111Z,16.80
2018-05-24T12:10:23.400Z,17.53
2018-05-24T12:13:14.936Z,16.83
2018-05-24T12:15:57.998Z,16.33
2018-05-24T12:18:28.060Z,16.93
2018-05-24T12:20:57.852Z,17.27
2018-05-24T12:23:26.098Z,17.40
2018-05-24T12:26:02.522Z,16.67
2018-05-24T12:28:33.994Z,17.10
2018-05-24T12:31:03.254Z,16.93
2018-05-24T12:33:43.618Z,16.93
2018-05-24T12:38:53.039Z,16.70
2018-05-24T12:41:21.458Z,17.50
2018-05-24T12:43:50.000Z,17.60
2018-05-24T12:46:19.085Z,17.67
2018-05-24T12:48:48.615Z,17.10
2018-05-24T12:51:19.715Z,17.57
2018-05-24T12:53:48.419Z,17.97
2018-05-24T12:56:17.493Z,18.13
2018-05-24T12:58:53.737Z,19.60
2018-05-24T13:01:23.660Z,19.07
2018-05-24T13:04:10.454Z,18.57
2018-05-24T13:06:39.382Z,19.30
2018-05-24T13:09:07.849Z,20.77
2018-05-24T13:11:36.091Z,21.30
2018-05-24T13:14:05.325Z,20.43
2018-05-24T13:16:34.905Z,20.60
2018-05-24T13:19:13.626Z,20.63
2018-05-24T13:21:42.949Z,21.50
2018-05-24T13:24:11.983Z,20.30
2018-05-24T13:26:41.065Z,19.77
2018-05-24T13:29:10.197Z,20.70
2018-05-24T13:31:39.567Z,20.63
2018-05-24T13:34:07.813Z,19.87
2018-05-24T13:36:36.219Z,21.20
2018-05-24T13:39:05.293Z,19.63
2018-05-24T13:41:33.601Z,19.20
2018-05-24T13:44:01.947Z,19.03
2018-05-24T13:46:30.270Z,18.33
2018-05-24T13:48:58.669Z,18.57
2018-05-24T13:51:26.877Z,18.50
2018-05-24T13:53:55.116Z,18.43
2018-05-24T13:56:23.590Z,17.63
2018-05-24T13:58:52.042Z,18.03
2018-05-24T14:01:23.023Z,18.03
2018-05-24T14:03:51.373Z,18.63
2018-05-24T14:06:20.207Z,17.53
2018-05-24T14:08:49.567Z,17.87
2018-05-24T14:11:17.944Z,18.23
2018-05-24T14:13:51.144Z,18.17
2018-05-24T14:16:19.774Z,17.67
2018-05-24T14:18:48.922Z,18.83
2018-05-24T14:21:17.220Z,17.47
2018-05-24T14:23:45.566Z,18.53
2018-05-24T14:26:13.901Z,18.30
2018-05-24T14:28:42.110Z,18.50
2018-05-24T14:31:12.664Z,17.67
2018-05-24T14:33:41.259Z,18.37
2018-05-24T14:36:09.639Z,17.70
2018-05-24T14:38:37.981Z,18.33
2018-05-24T14:41:06.298Z,17.70
2018-05-24T14:43:34.522Z,18.30
2018-05-24T14:46:04.605Z,17.60
2018-05-24T14:48:33.689Z,18.47
2018-05-24T14:51:01.916Z,18.50
2018-05-24T14:53:30.992Z,20.17
2018-05-24T14:55:59.275Z,20.30
2018-05-24T14:58:27.606Z,18.40
2018-05-24T15:00:55.941Z,19.87
2018-05-24T15:03:25.109Z,20.23
2018-05-24T15:05:53.504Z,19.27
2018-05-24T15:08:21.874Z,19.37
2018-05-24T15:10:50.162Z,19.47
2018-05-24T15:13:30.715Z,20.73
2018-05-24T15:15:58.942Z,21.47
2018-05-24T15:18:27.222Z,22.33
2018-05-24T15:20:56.273Z,20.97
2018-05-24T15:23:24.681Z,21.27
2018-05-24T15:25:53.151Z,22.80
2018-05-24T15:28:22.458Z,22.43
2018-05-24T15:30:51.531Z,22.90
2018-05-24T15:33:19.908Z,23.13
2018-05-24T15:35:49.138Z,23.20
2018-05-24T15:38:17.478Z,23.07
2018-05-24T15:40:45.976Z,24.60
2018-05-24T15:43:14.177Z,24.70
2018-05-24T15:45:42.591Z,25.20
2018-05-24T15:48:10.841Z,24.57
2018-05-24T15:50:39.867Z,25.27
2018-05-24T15:53:08.166Z,26.00
2018-05-24T15:55:36.474Z,26.80
2018-05-24T15:58:04.851Z,26.23
2018-05-24T16:00:33.257Z,27.07
2018-05-24T16:03:01.605Z,27.20
2018-05-24T16:05:29.941Z,27.47
2018-05-24T16:07:58.218Z,28.53
2018-05-24T16:10:27.207Z,27.60
2018-05-24T16:12:56.878Z,29.33
2018-05-24T16:15:25.308Z,28.47
2018-05-24T16:17:53.598Z,28.50
2018-05-24T16:20:21.904Z,28.80
2018-05-24T16:22:50.280Z,27.80
2018-05-24T16:25:18.559Z,27.67
2018-05-24T16:27:50.599Z,27.53
2018-05-24T16:30:19.188Z,28.83
2018-05-24T16:32:47.466Z,28.17
2018-05-24T16:35:15.830Z,28.57
2018-05-24T16:37:44.144Z,29.70
2018-05-24T16:40:12.386Z,31.40
2018-05-24T16:42:40.705Z,30.60
2018-05-24T16:45:08.973Z,29.57
2018-05-24T16:47:37.397Z,32.93
2018-05-24T16:50:05.631Z,30.87
2018-05-24T16:52:33.872Z,33.83
2018-05-24T16:55:02.779Z,32.23
2018-05-24T16:57:32.034Z,33.03
2018-05-24T17:00:00.980Z,34.90
2018-05-24T17:02:30.114Z,37.37
2018-05-24T17:04:58.493Z,35.33
2018-05-24T17:07:26.875Z,35.30
2018-05-24T17:09:55.268Z,34.10
2018-05-24T17:12:23.769Z,38.70
2018-05-24T17:14:52.016Z,26.10
2018-05-24T17:17:20.450Z,21.97
2018-05-24T17:19:49.489Z,20.57
2018-05-24T17:22:17.990Z,16.20
2018-05-24T17:24:46.253Z,12.47
2018-05-24T17:27:15.284Z,13.80
2018-05-24T17:29:44.308Z,12.73
2018-05-24T17:32:13.434Z,11.13
2018-05-24T17:34:41.681Z,11.80
2018-05-24T17:37:10.715Z,9.87
2018-05-24T17:39:39.040Z,9.33
2018-05-24T17:42:08.017Z,9.23
2018-05-24T17:44:36.574Z,9.60
2018-05-24T17:47:04.782Z,10.77
2018-05-24T17:49:33.198Z,11.33
2018-05-24T17:52:02.226Z,11.27
2018-05-24T17:54:30.450Z,11.40
2018-05-24T17:56:59.422Z,11.37
2018-05-24T17:59:27.630Z,11.83
2018-05-24T18:01:56.088Z,12.57
2018-05-24T18:04:25.181Z,13.10
2018-05-24T18:06:53.408Z,13.03
2018-05-24T18:09:21.669Z,11.47
2018-05-24T18:11:50.921Z,9.90
2018-05-24T18:14:26.534Z,8.93
2018-05-24T18:16:55.259Z,9.27
2018-05-24T18:19:23.501Z,7.83
2018-05-24T18:21:52.705Z,8.53
2018-05-24T18:24:21.636Z,8.80
2018-05-24T18:26:49.912Z,7.80
2018-05-24T18:29:18.164Z,7.47
2018-05-24T18:31:46.418Z,7.77
2018-05-24T18:34:14.732Z,7.83
2018-05-24T18:36:44.750Z,7.87
2018-05-24T18:39:12.978Z,7.77
2018-05-24T18:41:41.972Z,7.57
2018-05-24T18:44:11.035Z,7.57
2018-05-24T18:46:39.244Z,7.97
2018-05-24T18:49:08.593Z,7.97
2018-05-24T18:51:36.908Z,8.67
2018-05-24T18:54:05.971Z,9.73
2018-05-24T18:56:34.236Z,9.27
2018-05-24T18:59:03.368Z,10.93
2018-05-24T19:01:31.640Z,10.80
2018-05-24T19:04:00.973Z,10.40
2018-05-24T19:06:29.322Z,11.13
2018-05-24T19:08:58.663Z,10.73
2018-05-24T19:11:27.710Z,11.13
2018-05-24T19:13:56.304Z,11.40
2018-05-24T19:16:24.779Z,11.67
2018-05-24T19:18:53.077Z,11.97
2018-05-24T19:21:33.022Z,11.53
2018-05-24T19:24:01.974Z,11.73
2018-05-24T19:26:31.047Z,12.33
2018-05-24T19:29:03.809Z,12.30
2018-05-24T19:31:32.221Z,11.10
2018-05-24T19:34:00.865Z,11.10
2018-05-24T19:36:29.245Z,11.13
2018-05-24T19:38:58.487Z,11.77
2018-05-24T19:41:26.923Z,11.93
2018-05-24T19:43:55.199Z,10.87
2018-05-24T19:46:23.537Z,10.80
2018-05-24T19:48:54.464Z,11.10
2018-05-24T19:51:23.602Z,11.40
2018-05-24T19:53:51.892Z,12.67
2018-05-24T19:56:20.307Z,12.53
2018-05-24T19:58:50.116Z,12.13
2018-05-24T20:01:18.366Z,11.77
2018-05-24T20:03:46.623Z,11.67
2018-05-24T20:06:15.749Z,12.73
2018-05-24T20:08:44.296Z,13.87
2018-05-24T20:11:12.582Z,13.40
2018-05-24T20:13:42.170Z,13.40
2018-05-24T20:16:11.198Z,14.60
2018-05-24T20:18:40.502Z,14.97
2018-05-24T20:21:10.936Z,13.87
2018-05-24T20:23:46.356Z,14.50
